createdAt,value
2019-04-25T00:02:04.781Z,41.14
2019-04-25T00:04:31.526Z,41.20
2019-04-25T00:06:57.502Z,41.09
2019-04-25T00:09:25.261Z,41.10
2019-04-25T00:11:52.292Z,41.27
2019-04-25T00:14:18.914Z,41.17
2019-04-25T00:16:45.415Z,41.18
2019-04-25T00:19:11.730Z,41.30
2019-04-25T00:21:40.410Z,41.30
2019-04-25T00:24:09.217Z,41.30
2019-04-25T00:26:37.304Z,41.54
2019-04-25T00:29:03.994Z,41.71
2019-04-25T00:31:30.049Z,41.74
2019-04-25T00:33:55.919Z,41.89
2019-04-25T00:36:21.898Z,41.98
2019-04-25T00:38:48.305Z,42.01
2019-04-25T00:41:14.847Z,42.00
2019-04-25T00:43:42.177Z,42.03
2019-04-25T00:46:08.412Z,41.99
2019-04-25T00:48:34.675Z,41.93
2019-04-25T00:51:01.881Z,41.82
2019-04-25T00:53:27.904Z,41.91
2019-04-25T00:55:53.905Z,41.92
2019-04-25T00:58:33.446Z,42.00
2019-04-25T01:01:01.986Z,41.98
2019-04-25T01:03:31.631Z,42.01
2019-04-25T01:05:57.585Z,42.08
2019-04-25T01:08:23.743Z,42.09
2019-04-25T01:10:50.527Z,42.34
2019-04-25T01:13:17.558Z,42.51
2019-04-25T01:15:44.816Z,42.72
2019-04-25T01:18:12.274Z,42.60
2019-04-25T01:20:38.174Z,42.64
2019-04-25T01:23:04.039Z,42.70
2019-04-25T01:25:40.281Z,42.54
2019-04-25T01:27:57.818Z,42.83
2019-04-25T01:30:25.679Z,43.02
2019-04-25T01:32:52.940Z,43.10
2019-04-25T01:35:27.310Z,43.00
2019-04-25T01:37:57.984Z,42.72
2019-04-25T01:40:28.448Z,42.91
2019-04-25T01:43:03.629Z,43.03
2019-04-25T01:45:31.403Z,42.77
2019-04-25T01:47:58.430Z,42.86
2019-04-25T01:50:24.514Z,43.11
2019-04-25T01:52:50.523Z,42.97
2019-04-25T01:55:16.533Z,43.02
2019-04-25T01:57:45.020Z,42.98
2019-04-25T02:00:13.982Z,42.94
2019-04-25T02:02:40.152Z,42.96
2019-04-25T02:05:07.126Z,43.03
2019-04-25T02:07:33.404Z,43.04
2019-04-25T02:09:59.444Z,43.20
2019-04-25T02:12:36.300Z,43.47
2019-04-25T02:15:05.901Z,43.67
2019-04-25T02:17:30.126Z,43.66
2019-04-25T02:19:56.741Z,43.46
2019-04-25T02:22:24.324Z,43.43
2019-04-25T02:24:50.575Z,43.61
2019-04-25T02:27:16.469Z,43.54
2019-04-25T02:29:43.361Z,43.38
2019-04-25T02:32:10.122Z,43.44
2019-04-25T02:34:36.090Z,43.45
2019-04-25T02:37:07.142Z,43.72
2019-04-25T02:39:29.795Z,43.88
2019-04-25T02:41:57.859Z,43.72
2019-04-25T02:44:24.752Z,43.95
2019-04-25T02:47:07.892Z,43.89
2019-04-25T02:49:48.876Z,43.83
2019-04-25T02:52:25.874Z,43.83
2019-04-25T02:54:51.751Z,44.24
2019-04-25T02:57:17.728Z,44.07
2019-04-25T02:59:45.071Z,44.15
2019-04-25T03:02:11.203Z,43.97
2019-04-25T03:04:37.421Z,43.85
2019-04-25T03:07:07.413Z,43.83
2019-04-25T03:09:31.197Z,43.83
2019-04-25T03:11:58.407Z,43.77
2019-04-25T03:14:26.768Z,43.81
2019-04-25T03:16:54.336Z,43.98
2019-04-25T03:19:28.168Z,43.98
2019-04-25T03:21:56.258Z,43.91
2019-04-25T03:24:24.969Z,44.03
2019-04-25T03:26:50.047Z,43.92
2019-04-25T03:29:16.017Z,43.87
2019-04-25T03:31:44.729Z,44.02
2019-04-25T03:34:14.056Z,43.96
2019-04-25T03:36:37.344Z,44.06
2019-04-25T03:39:05.297Z,44.00
2019-04-25T03:41:31.215Z,43.98
2019-04-25T03:43:57.069Z,44.01
2019-04-25T03:46:23.332Z,43.93
2019-04-25T03:48:49.336Z,43.96
2019-04-25T03:51:15.658Z,43.93
2019-04-25T03:53:41.948Z,43.90
2019-04-25T03:56:08.633Z,44.00
2019-04-25T03:58:34.701Z,44.18
2019-04-25T04:01:00.675Z,44.21
2019-04-25T04:03:26.573Z,44.38
2019-04-25T04:05:54.024Z,44.55
2019-04-25T04:08:20.288Z,44.54
2019-04-25T04:10:46.226Z,44.33
2019-04-25T04:13:12.338Z,44.29
2019-04-25T04:15:38.206Z,44.20
2019-04-25T04:18:18.078Z,44.40
2019-04-25T04:21:03.200Z,44.52
2019-04-25T04:23:31.087Z,44.60
2019-04-25T04:25:57.048Z,44.54
2019-04-25T04:28:23.637Z,44.66
2019-04-25T04:30:49.597Z,45.11
2019-04-25T04:33:25.769Z,45.03
2019-04-25T04:35:44.159Z,45.00
2019-04-25T04:38:10.209Z,45.23
2019-04-25T04:40:37.220Z,45.07
2019-04-25T04:43:04.439Z,45.02
2019-04-25T04:45:30.372Z,45.25
2019-04-25T04:47:56.348Z,45.37
2019-04-25T04:50:23.287Z,45.48
2019-04-25T04:52:50.130Z,45.37
2019-04-25T04:55:18.320Z,45.27
2019-04-25T04:57:44.873Z,45.45
2019-04-25T05:00:12.224Z,45.50
2019-04-25T05:02:43.493Z,45.34
2019-04-25T05:05:12.034Z,45.26
2019-04-25T05:07:53.935Z,45.23
2019-04-25T05:10:20.139Z,45.02
2019-04-25T05:12:46.089Z,44.95
2019-04-25T05:15:14.842Z,44.76
2019-04-25T05:17:39.813Z,44.59
2019-04-25T05:20:05.831Z,44.82
2019-04-25T05:22:33.270Z,44.65
2019-04-25T05:24:59.201Z,44.56
2019-04-25T05:27:37.118Z,44.69
2019-04-25T05:29:53.982Z,44.60
2019-04-25T05:32:20.022Z,44.55
2019-04-25T05:34:46.191Z,44.46
2019-04-25T05:37:14.335Z,44.43
2019-04-25T05:39:40.878Z,44.36
2019-04-25T05:42:20.352Z,44.29
2019-04-25T05:44:46.307Z,44.20
2019-04-25T05:47:12.295Z,44.35
2019-04-25T05:49:38.192Z,44.33
2019-04-25T05:52:05.659Z,44.21
2019-04-25T05:54:31.541Z,44.18
2019-04-25T05:56:57.697Z,44.13
2019-04-25T05:59:25.546Z,44.09
2019-04-25T06:01:51.665Z,44.08
2019-04-25T06:04:17.981Z,43.99
2019-04-25T06:06:44.599Z,43.94
2019-04-25T06:09:15.063Z,43.87
2019-04-25T06:11:48.875Z,43.84
2019-04-25T06:14:18.281Z,43.85
2019-04-25T06:16:44.198Z,43.78
2019-04-25T06:19:16.374Z,43.71
2019-04-25T06:21:39.883Z,43.68
2019-04-25T06:24:25.797Z,43.70
2019-04-25T06:27:12.055Z,43.84
2019-04-25T06:29:38.052Z,43.92
2019-04-25T06:32:08.306Z,43.95
2019-04-25T06:34:34.191Z,44.05
2019-04-25T06:37:02.255Z,43.84
2019-04-25T06:39:27.948Z,43.91
2019-04-25T06:41:54.201Z,43.84
2019-04-25T06:44:28.486Z,43.75
2019-04-25T06:47:03.401Z,43.73
2019-04-25T06:49:31.452Z,43.79
2019-04-25T06:51:57.737Z,43.72
2019-04-25T06:54:25.441Z,43.72
2019-04-25T06:56:51.347Z,43.66
2019-04-25T06:59:17.414Z,43.74
2019-04-25T07:01:43.992Z,43.63
2019-04-25T07:04:09.886Z,43.53
2019-04-25T07:06:35.760Z,43.58
2019-04-25T07:09:03.076Z,43.46
2019-04-25T07:11:29.029Z,43.47
2019-04-25T07:13:54.955Z,43.37
2019-04-25T07:16:20.829Z,43.35
2019-04-25T07:18:46.866Z,43.23
2019-04-25T07:21:14.230Z,43.09
2019-04-25T07:23:40.405Z,42.81
2019-04-25T07:26:08.312Z,42.80
2019-04-25T07:28:53.829Z,42.72
2019-04-25T07:31:27.657Z,42.59
2019-04-25T07:33:58.307Z,42.38
2019-04-25T07:36:25.646Z,42.23
2019-04-25T07:39:04.973Z,42.00
2019-04-25T07:41:19.795Z,41.86
2019-04-25T07:43:45.725Z,41.79
2019-04-25T07:46:13.364Z,41.71
2019-04-25T07:48:39.366Z,41.57
2019-04-25T07:51:05.343Z,41.41
2019-04-25T07:53:31.577Z,41.30
2019-04-25T07:55:57.475Z,41.20
2019-04-25T07:58:38.240Z,41.11
2019-04-25T08:00:53.943Z,41.10
2019-04-25T08:03:20.016Z,40.96
2019-04-25T08:05:45.892Z,40.90
2019-04-25T08:08:13.480Z,40.71
2019-04-25T08:10:41.437Z,40.57
2019-04-25T08:13:07.299Z,40.55
2019-04-25T08:15:40.717Z,40.58
2019-04-25T08:18:08.383Z,40.17
2019-04-25T08:20:34.799Z,40.11
2019-04-25T08:23:04.104Z,40.23
2019-04-25T08:25:30.747Z,40.00
2019-04-25T08:27:56.972Z,39.74
2019-04-25T08:30:24.017Z,39.96
2019-04-25T08:32:49.987Z,39.65
2019-04-25T08:35:16.126Z,39.74
2019-04-25T08:37:43.935Z,39.61
2019-04-25T08:40:10.169Z,39.04
2019-04-25T08:42:36.787Z,39.44
2019-04-25T08:45:04.673Z,39.34
2019-04-25T08:47:31.358Z,38.95
2019-04-25T08:50:26.787Z,38.86
2019-04-25T08:52:44.321Z,38.98
2019-04-25T08:55:28.916Z,38.99
2019-04-25T08:57:59.589Z,38.73
2019-04-25T09:00:35.712Z,38.75
2019-04-25T09:03:03.867Z,38.60
2019-04-25T09:05:37.194Z,38.72
2019-04-25T09:08:04.181Z,38.44
2019-04-25T09:10:30.026Z,38.57
2019-04-25T09:12:56.014Z,38.53
2019-04-25T09:15:21.978Z,37.84
2019-04-25T09:17:47.950Z,37.90
2019-04-25T09:20:14.105Z,37.89
2019-04-25T09:22:39.975Z,37.80
2019-04-25T09:25:06.193Z,37.50
2019-04-25T09:27:34.343Z,37.42
2019-04-25T09:29:59.880Z,37.33
2019-04-25T09:32:25.736Z,37.23
2019-04-25T09:34:52.626Z,37.02
2019-04-25T09:37:19.451Z,36.97
2019-04-25T09:39:53.796Z,36.39
2019-04-25T09:42:20.836Z,35.41
2019-04-25T09:45:03.748Z,34.41
2019-04-25T09:47:29.732Z,33.97
2019-04-25T09:49:56.270Z,33.33
2019-04-25T09:52:24.348Z,33.61
2019-04-25T09:55:03.998Z,33.62
2019-04-25T09:57:33.387Z,33.98
2019-04-25T09:59:59.777Z,32.59
2019-04-25T10:02:26.057Z,32.45
2019-04-25T10:04:52.027Z,32.95
2019-04-25T10:07:17.863Z,31.64
2019-04-25T10:09:44.735Z,32.83
2019-04-25T10:12:11.049Z,33.67
2019-04-25T10:14:55.239Z,31.33
2019-04-25T10:17:21.199Z,30.64
2019-04-25T10:19:47.993Z,31.88
2019-04-25T10:22:14.024Z,32.51
2019-04-25T10:24:40.026Z,32.58
2019-04-25T10:27:06.099Z,31.61
2019-04-25T10:29:41.299Z,32.05
2019-04-25T10:31:59.919Z,31.47
2019-04-25T10:34:25.989Z,31.79
2019-04-25T10:36:53.154Z,32.05
2019-04-25T10:39:19.236Z,32.15
2019-04-25T10:41:46.691Z,31.25
2019-04-25T10:44:14.154Z,31.70
2019-04-25T10:46:40.220Z,31.88
2019-04-25T10:49:06.443Z,32.04
2019-04-25T10:51:34.137Z,30.95
2019-04-25T10:54:00.058Z,29.65
2019-04-25T10:56:25.925Z,30.93
2019-04-25T10:58:51.793Z,31.06
2019-04-25T11:01:17.844Z,30.26
2019-04-25T11:03:48.457Z,30.77
2019-04-25T11:06:16.637Z,30.02
2019-04-25T11:08:42.614Z,29.73
2019-04-25T11:11:09.280Z,30.26
2019-04-25T11:13:35.545Z,28.92
2019-04-25T11:16:01.424Z,30.03
2019-04-25T11:18:27.419Z,29.33
2019-04-25T11:20:54.985Z,29.14
2019-04-25T11:23:21.067Z,28.35
2019-04-25T11:25:47.294Z,28.92
2019-04-25T11:28:14.432Z,28.46
2019-04-25T11:30:43.574Z,27.88
2019-04-25T11:33:09.413Z,28.42
2019-04-25T11:35:35.384Z,28.12
2019-04-25T11:38:03.543Z,28.99
2019-04-25T11:40:37.420Z,28.33
2019-04-25T11:43:04.302Z,28.78
2019-04-25T11:45:30.285Z,28.21
2019-04-25T11:47:56.281Z,28.21
2019-04-25T11:50:22.468Z,27.93
2019-04-25T11:52:48.468Z,27.63
2019-04-25T11:55:14.951Z,28.09
2019-04-25T11:57:41.027Z,26.67
2019-04-25T12:00:08.041Z,26.88
2019-04-25T12:02:34.361Z,26.99
2019-04-25T12:05:00.374Z,26.82
2019-04-25T12:07:26.537Z,26.63
2019-04-25T12:09:54.118Z,26.58
2019-04-25T12:12:20.166Z,27.00
2019-04-25T12:14:46.395Z,27.03
2019-04-25T12:17:12.696Z,27.28
2019-04-25T12:19:38.720Z,27.10
2019-04-25T12:22:04.773Z,26.70
2019-04-25T12:24:30.728Z,26.02
2019-04-25T12:26:56.637Z,26.09
2019-04-25T12:29:24.305Z,26.25
2019-04-25T12:31:50.373Z,26.75
2019-04-25T12:34:16.328Z,26.88
2019-04-25T12:36:42.287Z,26.64
2019-04-25T12:39:09.782Z,25.89
2019-04-25T12:41:35.740Z,25.83
2019-04-25T12:44:19.777Z,26.66
2019-04-25T12:46:50.606Z,27.05
2019-04-25T12:49:16.461Z,25.56
2019-04-25T12:51:42.351Z,26.47
2019-04-25T12:54:08.394Z,26.91
2019-04-25T12:56:34.233Z,26.54
2019-04-25T12:59:00.496Z,25.97
2019-04-25T13:01:26.485Z,26.17
2019-04-25T13:03:54.030Z,26.35
2019-04-25T13:06:20.181Z,25.65
2019-04-25T13:08:46.212Z,26.16
2019-04-25T13:11:13.969Z,25.87
2019-04-25T13:13:39.976Z,25.62
2019-04-25T13:16:06.701Z,25.55
2019-04-25T13:18:32.664Z,25.67
2019-04-25T13:20:58.643Z,25.86
2019-04-25T13:23:24.567Z,25.95
2019-04-25T13:25:50.450Z,24.94
2019-04-25T13:28:20.868Z,25.48
2019-04-25T13:31:10.551Z,26.13
2019-04-25T13:33:34.879Z,26.32
2019-04-25T13:36:02.733Z,26.09
2019-04-25T13:38:28.708Z,25.93
2019-04-25T13:40:54.688Z,25.54
2019-04-25T13:43:20.560Z,26.17
2019-04-25T13:45:46.575Z,26.19
2019-04-25T13:48:13.231Z,26.14
2019-04-25T13:50:39.124Z,26.41
2019-04-25T13:53:05.020Z,26.59
2019-04-25T13:55:30.999Z,26.27
2019-04-25T13:57:56.987Z,25.53
2019-04-25T14:00:24.862Z,26.04
2019-04-25T14:02:51.562Z,26.39
2019-04-25T14:05:17.875Z,26.35
2019-04-25T14:07:43.760Z,26.37
2019-04-25T14:10:09.837Z,26.06
2019-04-25T14:12:35.729Z,26.57
2019-04-25T14:15:01.722Z,26.43
2019-04-25T14:17:41.564Z,26.47
2019-04-25T14:20:15.443Z,26.12
2019-04-25T14:22:43.124Z,25.74
2019-04-25T14:25:10.282Z,25.99
2019-04-25T14:27:36.193Z,26.37
2019-04-25T14:30:03.864Z,25.97
2019-04-25T14:32:30.169Z,26.41
2019-04-25T14:34:56.193Z,26.63
2019-04-25T14:37:26.354Z,26.67
2019-04-25T14:39:49.962Z,26.70
2019-04-25T14:42:15.969Z,26.68
2019-04-25T14:44:41.867Z,26.21
2019-04-25T14:47:07.929Z,26.75
2019-04-25T14:49:33.926Z,26.89
2019-04-25T14:51:59.921Z,26.84
2019-04-25T14:54:28.479Z,26.41
2019-04-25T14:57:11.301Z,26.80
2019-04-25T14:59:37.161Z,26.56
2019-04-25T15:02:03.322Z,26.68
2019-04-25T15:04:30.115Z,26.98
2019-04-25T15:06:56.108Z,27.00
2019-04-25T15:09:22.379Z,27.05
2019-04-25T15:11:49.647Z,26.96
2019-04-25T15:14:15.500Z,27.07
2019-04-25T15:16:41.500Z,27.01
2019-04-25T15:19:07.606Z,26.79
2019-04-25T15:21:33.984Z,25.77
2019-04-25T15:24:00.615Z,26.67
2019-04-25T15:26:26.866Z,26.92
2019-04-25T15:28:53.007Z,26.77
2019-04-25T15:31:18.961Z,26.92
2019-04-25T15:33:45.093Z,26.82
2019-04-25T15:36:18.743Z,26.96
2019-04-25T15:39:03.007Z,27.00
2019-04-25T15:41:33.791Z,26.86
2019-04-25T15:44:16.697Z,26.70
2019-04-25T15:46:44.510Z,26.76
2019-04-25T15:49:10.485Z,27.03
2019-04-25T15:51:36.472Z,26.82
2019-04-25T15:54:02.774Z,26.42
2019-04-25T15:56:28.855Z,26.92
2019-04-25T15:58:54.725Z,26.45
2019-04-25T16:01:21.211Z,26.82
2019-04-25T16:03:47.087Z,27.12
2019-04-25T16:06:12.990Z,27.24
2019-04-25T16:08:38.958Z,26.85
2019-04-25T16:11:05.272Z,26.85
2019-04-25T16:13:32.288Z,27.28
2019-04-25T16:15:58.176Z,27.29
2019-04-25T16:18:24.059Z,27.30
2019-04-25T16:20:52.911Z,27.52
2019-04-25T16:23:19.067Z,27.68
2019-04-25T16:25:45.135Z,27.82
2019-04-25T16:28:11.325Z,27.80
2019-04-25T16:30:37.380Z,27.78
2019-04-25T16:33:04.543Z,27.81
2019-04-25T16:35:31.006Z,27.89
2019-04-25T16:37:57.057Z,27.74
2019-04-25T16:40:23.604Z,27.61
2019-04-25T16:42:49.596Z,27.81
2019-04-25T16:45:15.579Z,27.74
2019-04-25T16:47:41.932Z,27.78
2019-04-25T16:50:08.283Z,27.69
2019-04-25T16:52:34.474Z,28.00
2019-04-25T16:55:00.795Z,28.12
2019-04-25T16:57:26.732Z,28.18
2019-04-25T16:59:53.615Z,28.25
2019-04-25T17:02:32.233Z,28.16
2019-04-25T17:04:48.170Z,28.40
2019-04-25T17:07:14.980Z,28.35
2019-04-25T17:09:40.988Z,28.60
2019-04-25T17:12:08.474Z,28.66
2019-04-25T17:14:37.442Z,28.65
2019-04-25T17:17:05.445Z,28.84
2019-04-25T17:19:36.750Z,28.86
2019-04-25T17:22:03.835Z,28.79
2019-04-25T17:24:30.075Z,28.34
2019-04-25T17:26:57.013Z,28.68
2019-04-25T17:29:23.005Z,28.79
2019-04-25T17:32:05.611Z,28.84
2019-04-25T17:34:39.267Z,29.02
2019-04-25T17:37:14.773Z,29.04
2019-04-25T17:39:42.692Z,29.23
2019-04-25T17:42:08.830Z,29.30
2019-04-25T17:44:34.653Z,29.26
2019-04-25T17:47:06.338Z,29.25
2019-04-25T17:49:28.509Z,29.44
2019-04-25T17:51:54.409Z,29.45
2019-04-25T17:54:20.386Z,29.57
2019-04-25T17:56:46.346Z,29.62
2019-04-25T17:59:12.201Z,29.76
2019-04-25T18:01:38.232Z,29.86
2019-04-25T18:04:04.763Z,29.95
2019-04-25T18:06:30.627Z,30.05
2019-04-25T18:08:56.524Z,30.18
2019-04-25T18:11:23.586Z,30.21
2019-04-25T18:13:51.110Z,30.22
2019-04-25T18:16:24.326Z,30.28
2019-04-25T18:18:52.028Z,30.40
2019-04-25T18:21:19.458Z,30.49
2019-04-25T18:23:52.689Z,30.58
2019-04-25T18:26:20.639Z,30.57
2019-04-25T18:28:50.234Z,30.70
2019-04-25T18:31:18.861Z,30.71
2019-04-25T18:33:48.677Z,30.79
2019-04-25T18:36:25.455Z,30.88
2019-04-25T18:39:02.278Z,30.90
2019-04-25T18:41:30.107Z,30.97
2019-04-25T18:44:06.651Z,31.04
2019-04-25T18:46:34.835Z,31.12
2019-04-25T18:49:01.226Z,31.19
2019-04-25T18:51:27.198Z,31.23
2019-04-25T18:54:05.585Z,31.22
2019-04-25T18:56:37.616Z,31.33
2019-04-25T18:59:08.881Z,31.42
2019-04-25T19:01:53.157Z,31.52
2019-04-25T19:04:20.928Z,31.58
2019-04-25T19:06:56.341Z,31.60
2019-04-25T19:09:16.202Z,31.58
2019-04-25T19:11:42.896Z,31.61
2019-04-25T19:14:09.465Z,31.71
2019-04-25T19:16:35.580Z,31.72
2019-04-25T19:19:01.591Z,31.76
2019-04-25T19:21:27.568Z,31.76
2019-04-25T19:23:54.120Z,31.82
2019-04-25T19:26:20.440Z,31.79
2019-04-25T19:28:48.827Z,31.82
2019-04-25T19:31:15.859Z,31.93
2019-04-25T19:33:42.013Z,31.99
2019-04-25T19:36:07.973Z,32.02
2019-04-25T19:38:36.752Z,32.05
2019-04-25T19:41:04.900Z,32.09
2019-04-25T19:43:42.203Z,32.15
2019-04-25T19:46:08.219Z,32.19
2019-04-25T19:48:38.805Z,32.20
2019-04-25T19:51:04.908Z,32.27
2019-04-25T19:53:31.051Z,32.29
2019-04-25T19:55:57.669Z,32.36
2019-04-25T19:58:23.850Z,32.47
2019-04-25T20:00:50.972Z,32.50
2019-04-25T20:03:21.987Z,32.51
2019-04-25T20:05:58.867Z,32.54
2019-04-25T20:08:32.779Z,32.47
2019-04-25T20:11:02.526Z,32.59
2019-04-25T20:13:28.497Z,32.60
2019-04-25T20:15:54.538Z,32.69
2019-04-25T20:18:20.949Z,32.76
2019-04-25T20:20:48.213Z,32.83
2019-04-25T20:23:14.016Z,32.86
2019-04-25T20:25:40.645Z,32.94
2019-04-25T20:28:06.637Z,32.97
2019-04-25T20:30:32.615Z,33.04
2019-04-25T20:32:58.831Z,33.06
2019-04-25T20:35:25.002Z,33.14
2019-04-25T20:37:51.216Z,33.20
2019-04-25T20:40:17.258Z,33.28
2019-04-25T20:42:54.192Z,33.30
2019-04-25T20:45:11.579Z,33.34
2019-04-25T20:47:37.662Z,33.39
2019-04-25T20:50:04.474Z,33.43
2019-04-25T20:52:30.352Z,33.50
2019-04-25T20:54:56.996Z,33.65
2019-04-25T20:57:22.951Z,33.71
2019-04-25T20:59:49.947Z,33.84
2019-04-25T21:02:16.263Z,33.94
2019-04-25T21:04:42.925Z,34.07
2019-04-25T21:07:09.000Z,34.11
2019-04-25T21:09:35.003Z,34.19
2019-04-25T21:12:00.981Z,34.33
2019-04-25T21:14:29.132Z,34.35
2019-04-25T21:16:59.787Z,34.31
2019-04-25T21:19:27.772Z,34.31
2019-04-25T21:21:54.231Z,34.31
2019-04-25T21:24:20.304Z,34.42
2019-04-25T21:26:46.634Z,34.44
2019-04-25T21:29:12.589Z,34.55
2019-04-25T21:31:38.648Z,34.71
2019-04-25T21:34:04.910Z,34.66
2019-04-25T21:36:31.206Z,34.73
2019-04-25T21:38:57.544Z,34.72
2019-04-25T21:41:44.036Z,34.75
2019-04-25T21:44:12.059Z,34.86
2019-04-25T21:46:38.088Z,34.86
2019-04-25T21:49:04.402Z,35.03
2019-04-25T21:51:30.357Z,35.21
2019-04-25T21:53:57.298Z,35.18
2019-04-25T21:56:23.656Z,35.25
2019-04-25T21:58:49.547Z,35.18
2019-04-25T22:01:16.452Z,35.21
2019-04-25T22:03:42.423Z,35.21
2019-04-25T22:06:08.694Z,35.35
2019-04-25T22:08:34.667Z,35.41
2019-04-25T22:11:01.234Z,35.73
2019-04-25T22:13:27.623Z,35.62
2019-04-25T22:15:53.934Z,35.61
2019-04-25T22:18:21.129Z,35.53
2019-04-25T22:20:48.005Z,35.66
2019-04-25T22:23:14.288Z,35.64
2019-04-25T22:25:40.615Z,35.62
2019-04-25T22:28:07.218Z,35.79
2019-04-25T22:30:33.420Z,35.83
2019-04-25T22:33:03.514Z,35.86
2019-04-25T22:35:31.460Z,35.76
2019-04-25T22:38:00.018Z,35.71
2019-04-25T22:40:25.935Z,35.99
2019-04-25T22:42:51.912Z,35.88
2019-04-25T22:45:17.945Z,35.86
2019-04-25T22:47:43.819Z,35.84
2019-04-25T22:50:10.647Z,36.03
2019-04-25T22:52:36.842Z,35.95
2019-04-25T22:55:04.288Z,36.06
2019-04-25T22:57:30.426Z,36.01
2019-04-25T22:59:56.348Z,36.12
2019-04-25T23:02:24.149Z,36.14
2019-04-25T23:05:04.367Z,36.32
2019-04-25T23:07:19.953Z,36.25
2019-04-25T23:09:46.532Z,36.27
2019-04-25T23:12:12.738Z,36.30
2019-04-25T23:14:39.060Z,36.19
2019-04-25T23:17:05.167Z,36.27
2019-04-25T23:19:31.248Z,36.53
2019-04-25T23:21:57.185Z,36.54
2019-04-25T23:24:25.063Z,36.56
2019-04-25T23:26:53.041Z,36.68
2019-04-25T23:29:18.953Z,36.57
2019-04-25T23:31:44.841Z,36.68
2019-04-25T23:34:11.152Z,36.59
2019-04-25T23:36:37.058Z,36.67
2019-04-25T23:39:05.153Z,36.60
2019-04-25T23:41:32.327Z,36.63
2019-04-25T23:43:58.258Z,36.73
2019-04-25T23:46:24.744Z,36.78
2019-04-25T23:48:50.640Z,36.80
2019-04-25T23:51:17.443Z,36.82
2019-04-25T23:53:43.808Z,36.86
2019-04-25T23:56:09.894Z,37.04
2019-04-25T23:58:36.874Z,37.07
